地図

経路データ

SID SEASON NUMBER BASIN SUBBASIN NAME ISO_TIME NATURE LAT LON WMO_WIND WMO_PRES WMO_AGENCY TRACK_TYPE DIST2LAND LANDFALL IFLAG USA_AGENCY USA_ATCF_ID USA_LAT USA_LON USA_RECORD USA_STATUS USA_WIND USA_PRES USA_SSHS USA_R34_NE USA_R34_SE USA_R34_SW USA_R34_NW USA_R50_NE USA_R50_SE USA_R50_SW USA_R50_NW USA_R64_NE USA_R64_SE USA_R64_SW USA_R64_NW USA_POCI USA_ROCI USA_RMW USA_EYE TOKYO_LAT TOKYO_LON TOKYO_GRADE TOKYO_WIND TOKYO_PRES TOKYO_R50_DIR TOKYO_R50_LONG TOKYO_R50_SHORT TOKYO_R30_DIR TOKYO_R30_LONG TOKYO_R30_SHORT TOKYO_LAND CMA_LAT CMA_LON CMA_CAT CMA_WIND CMA_PRES HKO_LAT HKO_LON HKO_CAT HKO_WIND HKO_PRES NEWDELHI_LAT NEWDELHI_LON NEWDELHI_GRADE NEWDELHI_WIND NEWDELHI_PRES NEWDELHI_CI NEWDELHI_DP NEWDELHI_POCI REUNION_LAT REUNION_LON REUNION_TYPE REUNION_WIND REUNION_PRES REUNION_TNUM REUNION_CI REUNION_RMW REUNION_R34_NE REUNION_R34_SE REUNION_R34_SW REUNION_R34_NW REUNION_R50_NE REUNION_R50_SE REUNION_R50_SW REUNION_R50_NW REUNION_R64_NE REUNION_R64_SE REUNION_R64_SW REUNION_R64_NW BOM_LAT BOM_LON BOM_TYPE BOM_WIND BOM_PRES BOM_TNUM BOM_CI BOM_RMW BOM_R34_NE BOM_R34_SE BOM_R34_SW BOM_R34_NW BOM_R50_NE BOM_R50_SE BOM_R50_SW BOM_R50_NW BOM_R64_NE BOM_R64_SE BOM_R64_SW BOM_R64_NW BOM_ROCI BOM_POCI BOM_EYE BOM_POS_METHOD BOM_PRES_METHOD NADI_LAT NADI_LON NADI_CAT NADI_WIND NADI_PRES WELLINGTON_LAT WELLINGTON_LON WELLINGTON_WIND WELLINGTON_PRES DS824_LAT DS824_LON DS824_STAGE DS824_WIND DS824_PRES TD9636_LAT TD9636_LON TD9636_STAGE TD9636_WIND TD9636_PRES TD9635_LAT TD9635_LON TD9635_WIND TD9635_PRES TD9635_ROCI NEUMANN_LAT NEUMANN_LON NEUMANN_CLASS NEUMANN_WIND NEUMANN_PRES MLC_LAT MLC_LON MLC_CLASS MLC_WIND MLC_PRES USA_GUST BOM_GUST BOM_GUST_PER REUNION_GUST REUNION_GUST_PER USA_SEAHGT USA_SEARAD_NE USA_SEARAD_SE USA_SEARAD_SW USA_SEARAD_NW STORM_SPEED STORM_DIR
1901286N14135 1901 37 WP MM NOT_NAMED 1901-10-12 16:00:00 NR 14.2000 135.000 main 1053 848 __________O___ -1 14.2000 135.000 7 59 275
1901286N14135 1901 37 WP MM NOT_NAMED 1901-10-12 18:00:00 NR 14.3804 132.977 main 848 565 __________P___ -1 14.3804 132.977 7 58 275
1901286N14135 1901 37 WP MM NOT_NAMED 1901-10-12 21:00:00 NR 14.6082 130.063 main 565 348 __________P___ -1 14.6082 130.063 7 53 274
1901286N14135 1901 37 WP MM NOT_NAMED 1901-10-13 00:00:00 NR 14.7751 127.497 main 348 163 __________P___ -1 14.7751 127.497 7 44 274
1901286N14135 1901 37 WP MM NOT_NAMED 1901-10-13 03:00:00 NR 14.8789 125.502 main 163 132 __________P___ -1 14.8789 125.502 7 36 273
1901286N14135 1901 37 WP MM NOT_NAMED 1901-10-13 04:00:00 NR 14.9000 125.000 main 125 100 __________O___ -1 14.9000 125.000 7 24 272
1901286N14135 1901 37 WP MM NOT_NAMED 1901-10-13 06:00:00 NR 14.9241 124.264 main 100 100 __________P___ -1 14.9241 124.264 7 15 271
1901286N14135 1901 37 WP MM NOT_NAMED 1901-10-13 09:00:00 NR 14.9292 123.694 main 109 101 __________P___ -1 14.9292 123.694 7 7 269
1901286N14135 1901 37 WP MM NOT_NAMED 1901-10-13 12:00:00 NR 14.9160 123.532 main 101 101 __________P___ -1 14.9160 123.532 7 2 261
1901286N14135 1901 37 WP MM NOT_NAMED 1901-10-13 15:00:00 NR 14.9020 123.518 main 101 101 __________P___ -1 14.9020 123.518 7 1 246
1901286N14135 1901 37 WP MM NOT_NAMED 1901-10-13 16:00:00 NR 14.9000 123.500 main 101 89 __________O___ -1 14.9000 123.500 7 4 270
1901286N14135 1901 37 WP MM NOT_NAMED 1901-10-13 18:00:00 NR 14.9025 123.292 main 89 79 __________P___ -1 14.9025 123.292 7 6 271
1901286N14135 1901 37 WP MM NOT_NAMED 1901-10-13 21:00:00 NR 14.9126 122.988 main 79 78 __________P___ -1 14.9126 122.988 7 6 273
1901286N14135 1901 37 WP MM NOT_NAMED 1901-10-14 00:00:00 NR 14.9363 122.656 main 78 72 __________P___ -1 14.9363 122.656 7 7 275
1901286N14135 1901 37 WP MM NOT_NAMED 1901-10-14 03:00:00 NR 14.9799 122.255 main 72 54 __________P___ -1 14.9799 122.255 7 8 277
1901286N14135 1901 37 WP MM NOT_NAMED 1901-10-14 04:00:00 NR 15.0000 122.100 main 54 21 __________O___ -1 15.0000 122.100 3 10 277
1901286N14135 1901 37 WP MM NOT_NAMED 1901-10-14 06:00:00 NR 15.0447 121.733 main 21 0 __________P___ -1 15.0447 121.733 3 12 278
1901286N14135 1901 37 WP MM NOT_NAMED 1901-10-14 09:00:00 NR 15.1302 121.106 main 0 0 __________P___ -1 15.1302 121.106 3 13 279
1901286N14135 1901 37 WP MM NOT_NAMED 1901-10-14 12:00:00 NR 15.2351 120.424 main 0 0 __________P___ -1 15.2351 120.424 3 13 280
1901286N14135 1901 37 WP MM NOT_NAMED 1901-10-14 15:00:00 NR 15.3564 119.728 main 21 21 __________P___ -1 15.3564 119.728 3 14 280
1901286N14135 1901 37 WP MM NOT_NAMED 1901-10-14 16:00:00 NR 15.4000 119.500 main 42 42 __________O___ -1 15.4000 119.500 4 13 281
1901286N14135 1901 37 WP MM NOT_NAMED 1901-10-14 18:00:00 NR 15.4857 119.067 main 85 93 __________P___ -1 15.4857 119.067 4 13 282
1901286N14135 1901 37 WP MM NOT_NAMED 1901-10-14 21:00:00 NR 15.6271 118.424 main 146 146 __________P___ -1 15.6271 118.424 4 13 284
1901286N14135 1901 37 WP MM NOT_NAMED 1901-10-15 00:00:00 NR 15.7809 117.796 main 204 204 __________P___ -1 15.7809 117.796 4 12 285
1901286N14135 1901 37 WP MM NOT_NAMED 1901-10-15 03:00:00 NR 15.9441 117.194 main 267 267 __________P___ -1 15.9441 117.194 4 12 286
1901286N14135 1901 37 WP MM NOT_NAMED 1901-10-15 04:00:00 NR 16.0000 117.000 main 288 288 __________O___ -1 16.0000 117.000 4 11 288
1901286N14135 1901 37 WP MM NOT_NAMED 1901-10-15 06:00:00 NR 16.1155 116.635 main 331 331 __________P___ -1 16.1155 116.635 4 11 289
1901286N14135 1901 37 WP MM NOT_NAMED 1901-10-15 09:00:00 NR 16.2956 116.113 main 386 386 __________P___ -1 16.2956 116.113 4 11 290
1901286N14135 1901 37 WP MM NOT_NAMED 1901-10-15 12:00:00 NR 16.4759 115.602 main 441 441 __________P___ -1 16.4759 115.602 4 11 290
1901286N14135 1901 37 WP MM NOT_NAMED 1901-10-15 15:00:00 NR 16.6468 115.080 main 495 497 __________P___ -1 16.6468 115.080 4 11 288
1901286N14135 1901 37 WP MM NOT_NAMED 1901-10-15 16:00:00 NR 16.7000 114.900 main 518 479 __________O___ -1 16.7000 114.900 4 12 285
1901286N14135 1901 37 WP MM NOT_NAMED 1901-10-15 18:00:00 NR 16.8058 114.478 main 479 403 __________P___ -1 16.8058 114.478 4 13 284
1901286N14135 1901 37 WP MM NOT_NAMED 1901-10-15 21:00:00 NR 16.9519 113.825 main 403 343 __________P___ -1 16.9519 113.825 4 13 282
1901286N14135 1901 37 WP MM NOT_NAMED 1901-10-16 00:00:00 NR 17.0769 113.198 main 343 293 __________P___ -1 17.0769 113.198 4 11 281
1901286N14135 1901 37 WP MM NOT_NAMED 1901-10-16 03:00:00 NR 17.1745 112.654 main 293 277 __________P___ -1 17.1745 112.654 4 10 280
1901286N14135 1901 37 WP MM NOT_NAMED 1901-10-16 04:00:00 NR 17.2000 112.500 main 277 261 __________O___ -1 17.2000 112.500 4 8 279
1901286N14135 1901 37 WP MM NOT_NAMED 1901-10-16 06:00:00 NR 17.2361 112.261 main 261 230 __________P___ -1 17.2361 112.261 4 6 278
1901286N14135 1901 37 WP MM NOT_NAMED 1901-10-16 09:00:00 NR 17.2656 111.998 main 230 215 __________P___ -1 17.2656 111.998 4 4 276
1901286N14135 1901 37 WP MM NOT_NAMED 1901-10-16 12:00:00 NR 17.2795 111.810 main 215 208 __________P___ -1 17.2795 111.810 4 3 275
1901286N14135 1901 37 WP MM NOT_NAMED 1901-10-16 15:00:00 NR 17.2930 111.653 main 208 201 __________P___ -1 17.2930 111.653 4 3 276
1901286N14135 1901 37 WP MM NOT_NAMED 1901-10-16 16:00:00 NR 17.3000 111.600 main 201 195 __________O___ -1 17.3000 111.600 4 4 282
1901286N14135 1901 37 WP MM NOT_NAMED 1901-10-16 18:00:00 NR 17.3301 111.474 main 195 173 __________P___ -1 17.3301 111.474 4 4 286
1901286N14135 1901 37 WP MM NOT_NAMED 1901-10-16 21:00:00 NR 17.3816 111.292 main 173 161 __________P___ -1 17.3816 111.292 4 4 286
1901286N14135 1901 37 WP MM NOT_NAMED 1901-10-17 00:00:00 NR 17.4354 111.101 main 161 138 __________P___ -1 17.4354 111.101 4 4 285
1901286N14135 1901 37 WP MM NOT_NAMED 1901-10-17 03:00:00 NR 17.4853 110.882 main 138 131 __________P___ -1 17.4853 110.882 4 4 283
1901286N14135 1901 37 WP MM NOT_NAMED 1901-10-17 04:00:00 NR 17.5000 110.800 main 131 119 __________O___ -1 17.5000 110.800 4 5 278
1901286N14135 1901 37 WP MM NOT_NAMED 1901-10-17 06:00:00 NR 17.5198 110.609 main 119 100 __________P___ -1 17.5198 110.609 4 6 275
1901286N14135 1901 37 WP MM NOT_NAMED 1901-10-17 09:00:00 NR 17.5432 110.291 main 100 74 __________P___ -1 17.5432 110.291 4 6 274
1901286N14135 1901 37 WP MM NOT_NAMED 1901-10-17 12:00:00 NR 17.5643 109.952 main 74 67 __________P___ -1 17.5643 109.952 4 7 274
1901286N14135 1901 37 WP MM NOT_NAMED 1901-10-17 15:00:00 NR 17.5896 109.611 main 67 67 __________P___ -1 17.5896 109.611 4 6 275
1901286N14135 1901 37 WP MM NOT_NAMED 1901-10-17 16:00:00 NR 17.6000 109.500 main 67 67 __________O___ -1 17.6000 109.500 4 6 276
1901286N14135 1901 37 WP MM NOT_NAMED 1901-10-17 18:00:00 NR 17.6248 109.285 main 70 70 __________P___ -1 17.6248 109.285 4 6 278
1901286N14135 1901 37 WP MM NOT_NAMED 1901-10-17 21:00:00 NR 17.6706 108.977 main 76 76 __________P___ -1 17.6706 108.977 4 6 280
1901286N14135 1901 37 WP MM NOT_NAMED 1901-10-18 00:00:00 NR 17.7236 108.682 main 84 81 __________P___ -1 17.7236 108.682 4 6 281
1901286N14135 1901 37 WP MM NOT_NAMED 1901-10-18 03:00:00 NR 17.7807 108.395 main 84 84 __________P___ -1 17.7807 108.395 4 6 282
1901286N14135 1901 37 WP MM NOT_NAMED 1901-10-18 04:00:00 NR 17.8000 108.300 main 89 __________O___ -1 17.8000 108.300 4 6 283

デジタル台風データ・検索

IBTrACS Databaseについて

本データベースは、米国NOAAが公開する1842年以降の世界の熱帯低気圧のベストトラックデータアーカイブInternational Best Track Archive for Climate Stewardship (IBTrACS)を、ウェブで閲覧しやすい形式に変換したものです。

最終更新日:2021-12-06